sensor_id;sensor_type;location;lat;lon;timestamp;P1;durP1;ratioP1;P2;durP2;ratioP2
69534;SDS011;56754;51.568;5.048;2023-02-22T00:01:15;26.60;;;11.77;;
69534;SDS011;56754;51.568;5.048;2023-02-22T00:03:41;27.88;;;12.60;;
69534;SDS011;56754;51.568;5.048;2023-02-22T00:06:06;25.27;;;12.20;;
69534;SDS011;56754;51.568;5.048;2023-02-22T00:08:33;26.03;;;12.17;;
69534;SDS011;56754;51.568;5.048;2023-02-22T00:11:04;23.92;;;11.30;;
69534;SDS011;56754;51.568;5.048;2023-02-22T00:13:31;23.77;;;11.25;;
69534;SDS011;56754;51.568;5.048;2023-02-22T00:15:56;22.87;;;11.07;;
69534;SDS011;56754;51.568;5.048;2023-02-22T00:18:23;23.60;;;10.98;;
69534;SDS011;56754;51.568;5.048;2023-02-22T00:20:48;25.67;;;12.07;;
69534;SDS011;56754;51.568;5.048;2023-02-22T00:23:15;23.65;;;11.13;;
69534;SDS011;56754;51.568;5.048;2023-02-22T00:25:42;25.23;;;11.52;;
69534;SDS011;56754;51.568;5.048;2023-02-22T00:28:08;25.80;;;12.10;;
69534;SDS011;56754;51.568;5.048;2023-02-22T00:30:34;23.65;;;10.57;;
69534;SDS011;56754;51.568;5.048;2023-02-22T00:32:59;25.03;;;11.47;;
69534;SDS011;56754;51.568;5.048;2023-02-22T00:35:26;25.10;;;11.93;;
69534;SDS011;56754;51.568;5.048;2023-02-22T00:37:54;21.95;;;10.70;;
69534;SDS011;56754;51.568;5.048;2023-02-22T00:40:23;24.65;;;11.82;;
69534;SDS011;56754;51.568;5.048;2023-02-22T00:42:50;24.20;;;11.65;;
69534;SDS011;56754;51.568;5.048;2023-02-22T00:45:18;26.30;;;12.17;;
69534;SDS011;56754;51.568;5.048;2023-02-22T00:47:45;26.42;;;12.80;;
69534;SDS011;56754;51.568;5.048;2023-02-22T00:50:11;22.75;;;10.65;;
69534;SDS011;56754;51.568;5.048;2023-02-22T00:52:37;24.13;;;11.75;;
69534;SDS011;56754;51.568;5.048;2023-02-22T00:55:04;25.65;;;11.77;;
69534;SDS011;56754;51.568;5.048;2023-02-22T00:57:32;23.67;;;11.30;;
69534;SDS011;56754;51.568;5.048;2023-02-22T00:59:57;24.52;;;11.52;;
69534;SDS011;56754;51.568;5.048;2023-02-22T01:02:23;24.13;;;11.57;;
69534;SDS011;56754;51.568;5.048;2023-02-22T01:04:48;23.03;;;10.60;;
69534;SDS011;56754;51.568;5.048;2023-02-22T01:07:13;24.43;;;11.43;;
69534;SDS011;56754;51.568;5.048;2023-02-22T01:09:39;22.80;;;10.83;;
69534;SDS011;56754;51.568;5.048;2023-02-22T01:12:04;23.67;;;11.23;;
69534;SDS011;56754;51.568;5.048;2023-02-22T01:14:29;25.47;;;12.23;;
69534;SDS011;56754;51.568;5.048;2023-02-22T01:16:55;24.67;;;12.07;;
69534;SDS011;56754;51.568;5.048;2023-02-22T01:19:21;23.70;;;11.35;;
69534;SDS011;56754;51.568;5.048;2023-02-22T01:21:47;24.70;;;12.48;;
69534;SDS011;56754;51.568;5.048;2023-02-22T01:24:14;24.27;;;11.00;;
69534;SDS011;56754;51.568;5.048;2023-02-22T01:26:41;24.80;;;11.27;;
69534;SDS011;56754;51.568;5.048;2023-02-22T01:29:07;26.75;;;12.63;;
69534;SDS011;56754;51.568;5.048;2023-02-22T01:31:32;24.70;;;12.20;;
69534;SDS011;56754;51.568;5.048;2023-02-22T01:33:57;23.30;;;11.93;;
69534;SDS011;56754;51.568;5.048;2023-02-22T01:36:23;25.57;;;12.30;;
69534;SDS011;56754;51.568;5.048;2023-02-22T01:38:48;26.57;;;13.00;;
69534;SDS011;56754;51.568;5.048;2023-02-22T01:41:13;25.30;;;11.60;;
69534;SDS011;56754;51.568;5.048;2023-02-22T01:43:38;22.53;;;11.00;;
69534;SDS011;56754;51.568;5.048;2023-02-22T01:46:24;24.00;;;11.83;;
69534;SDS011;56754;51.568;5.048;2023-02-22T01:48:53;24.13;;;11.23;;
69534;SDS011;56754;51.568;5.048;2023-02-22T01:51:29;26.38;;;12.02;;
69534;SDS011;56754;51.568;5.048;2023-02-22T01:53:58;23.40;;;11.50;;
69534;SDS011;56754;51.568;5.048;2023-02-22T01:56:31;24.27;;;10.80;;
69534;SDS011;56754;51.568;5.048;2023-02-22T01:59:05;22.35;;;10.70;;
69534;SDS011;56754;51.568;5.048;2023-02-22T02:01:34;23.88;;;10.73;;
69534;SDS011;56754;51.568;5.048;2023-02-22T02:04:03;23.05;;;11.55;;
69534;SDS011;56754;51.568;5.048;2023-02-22T02:06:32;26.15;;;12.73;;
69534;SDS011;56754;51.568;5.048;2023-02-22T02:09:11;24.20;;;11.13;;
69534;SDS011;56754;51.568;5.048;2023-02-22T02:11:44;23.83;;;11.93;;
69534;SDS011;56754;51.568;5.048;2023-02-22T02:14:10;25.80;;;12.00;;
69534;SDS011;56754;51.568;5.048;2023-02-22T02:16:49;23.52;;;10.82;;
69534;SDS011;56754;51.568;5.048;2023-02-22T02:19:40;22.30;;;10.82;;
69534;SDS011;56754;51.568;5.048;2023-02-22T02:22:25;23.60;;;10.23;;
69534;SDS011;56754;51.568;5.048;2023-02-22T02:33:49;22.88;;;10.95;;
69534;SDS011;56754;51.568;5.048;2023-02-22T02:36:22;23.07;;;10.93;;
69534;SDS011;56754;51.568;5.048;2023-02-22T02:39:19;23.27;;;10.63;;
69534;SDS011;56754;51.568;5.048;2023-02-22T02:41:51;22.15;;;10.35;;
69534;SDS011;56754;51.568;5.048;2023-02-22T02:44:22;22.97;;;11.03;;
69534;SDS011;56754;51.568;5.048;2023-02-22T02:46:57;23.08;;;10.77;;
69534;SDS011;56754;51.568;5.048;2023-02-22T02:49:28;24.15;;;11.77;;
69534;SDS011;56754;51.568;5.048;2023-02-22T02:51:58;22.08;;;11.50;;
69534;SDS011;56754;51.568;5.048;2023-02-22T02:54:26;21.97;;;10.17;;
69534;SDS011;56754;51.568;5.048;2023-02-22T02:56:52;20.88;;;10.32;;
69534;SDS011;56754;51.568;5.048;2023-02-22T02:59:29;21.23;;;10.15;;
69534;SDS011;56754;51.568;5.048;2023-02-22T03:15:13;21.70;;;10.65;;
69534;SDS011;56754;51.568;5.048;2023-02-22T03:17:52;20.08;;;10.30;;
69534;SDS011;56754;51.568;5.048;2023-02-22T03:20:43;21.03;;;9.90;;
69534;SDS011;56754;51.568;5.048;2023-02-22T03:26:06;19.80;;;9.65;;
69534;SDS011;56754;51.568;5.048;2023-02-22T03:28:34;21.42;;;10.38;;
69534;SDS011;56754;51.568;5.048;2023-02-22T03:31:04;20.75;;;10.00;;
69534;SDS011;56754;51.568;5.048;2023-02-22T03:33:43;18.60;;;9.37;;
69534;SDS011;56754;51.568;5.048;2023-02-22T03:36:19;20.52;;;10.10;;
69534;SDS011;56754;51.568;5.048;2023-02-22T03:38:48;21.75;;;10.32;;
69534;SDS011;56754;51.568;5.048;2023-02-22T03:41:15;20.60;;;10.45;;
69534;SDS011;56754;51.568;5.048;2023-02-22T03:43:46;19.05;;;9.75;;
69534;SDS011;56754;51.568;5.048;2023-02-22T03:46:15;18.83;;;9.20;;
69534;SDS011;56754;51.568;5.048;2023-02-22T03:48:58;20.60;;;10.02;;
69534;SDS011;56754;51.568;5.048;2023-02-22T03:51:28;17.77;;;8.88;;
69534;SDS011;56754;51.568;5.048;2023-02-22T03:53:54;18.60;;;8.47;;
69534;SDS011;56754;51.568;5.048;2023-02-22T03:56:24;18.80;;;8.80;;
69534;SDS011;56754;51.568;5.048;2023-02-22T03:58:56;19.40;;;9.70;;
69534;SDS011;56754;51.568;5.048;2023-02-22T04:01:21;19.00;;;10.07;;
69534;SDS011;56754;51.568;5.048;2023-02-22T04:03:46;19.57;;;9.43;;
69534;SDS011;56754;51.568;5.048;2023-02-22T04:06:12;18.47;;;9.40;;
69534;SDS011;56754;51.568;5.048;2023-02-22T04:08:37;19.53;;;9.23;;
69534;SDS011;56754;51.568;5.048;2023-02-22T04:11:02;18.67;;;9.40;;
69534;SDS011;56754;51.568;5.048;2023-02-22T04:13:27;18.43;;;9.53;;
69534;SDS011;56754;51.568;5.048;2023-02-22T04:15:53;18.33;;;9.43;;
69534;SDS011;56754;51.568;5.048;2023-02-22T04:18:18;17.60;;;8.87;;
69534;SDS011;56754;51.568;5.048;2023-02-22T04:20:44;17.92;;;8.70;;
69534;SDS011;56754;51.568;5.048;2023-02-22T04:23:09;17.07;;;8.63;;
69534;SDS011;56754;51.568;5.048;2023-02-22T04:25:35;17.38;;;8.95;;
69534;SDS011;56754;51.568;5.048;2023-02-22T04:28:01;18.13;;;8.97;;
69534;SDS011;56754;51.568;5.048;2023-02-22T04:30:26;16.47;;;8.60;;
69534;SDS011;56754;51.568;5.048;2023-02-22T04:32:51;18.60;;;9.50;;
69534;SDS011;56754;51.568;5.048;2023-02-22T04:35:16;16.43;;;8.70;;
69534;SDS011;56754;51.568;5.048;2023-02-22T04:37:42;17.00;;;8.40;;
69534;SDS011;56754;51.568;5.048;2023-02-22T04:40:09;17.27;;;8.53;;
69534;SDS011;56754;51.568;5.048;2023-02-22T04:42:34;18.00;;;9.02;;
69534;SDS011;56754;51.568;5.048;2023-02-22T04:45:00;16.75;;;8.77;;
69534;SDS011;56754;51.568;5.048;2023-02-22T04:47:26;16.70;;;8.70;;
69534;SDS011;56754;51.568;5.048;2023-02-22T04:49:52;15.93;;;8.27;;
69534;SDS011;56754;51.568;5.048;2023-02-22T04:52:17;15.65;;;8.00;;
69534;SDS011;56754;51.568;5.048;2023-02-22T04:54:42;16.97;;;8.47;;
69534;SDS011;56754;51.568;5.048;2023-02-22T04:57:07;17.20;;;9.03;;
69534;SDS011;56754;51.568;5.048;2023-02-22T04:59:34;16.03;;;8.20;;
69534;SDS011;56754;51.568;5.048;2023-02-22T05:01:59;16.50;;;8.43;;
69534;SDS011;56754;51.568;5.048;2023-02-22T05:04:25;17.30;;;8.60;;
69534;SDS011;56754;51.568;5.048;2023-02-22T05:06:50;16.87;;;8.63;;
69534;SDS011;56754;51.568;5.048;2023-02-22T05:09:15;17.83;;;8.70;;
69534;SDS011;56754;51.568;5.048;2023-02-22T05:11:41;15.73;;;8.03;;
69534;SDS011;56754;51.568;5.048;2023-02-22T05:14:06;18.05;;;9.52;;
69534;SDS011;56754;51.568;5.048;2023-02-22T05:16:31;15.43;;;8.17;;
69534;SDS011;56754;51.568;5.048;2023-02-22T05:18:57;15.83;;;7.87;;
69534;SDS011;56754;51.568;5.048;2023-02-22T05:21:22;15.20;;;7.63;;
69534;SDS011;56754;51.568;5.048;2023-02-22T05:23:47;15.83;;;7.87;;
69534;SDS011;56754;51.568;5.048;2023-02-22T05:26:13;15.60;;;8.00;;
69534;SDS011;56754;51.568;5.048;2023-02-22T05:28:38;15.32;;;7.97;;
69534;SDS011;56754;51.568;5.048;2023-02-22T05:31:03;15.37;;;8.30;;
69534;SDS011;56754;51.568;5.048;2023-02-22T05:33:29;15.60;;;7.87;;
69534;SDS011;56754;51.568;5.048;2023-02-22T05:35:54;16.07;;;8.27;;
69534;SDS011;56754;51.568;5.048;2023-02-22T05:38:20;16.67;;;8.60;;
69534;SDS011;56754;51.568;5.048;2023-02-22T05:40:45;15.47;;;7.97;;
69534;SDS011;56754;51.568;5.048;2023-02-22T05:43:11;16.57;;;8.63;;
69534;SDS011;56754;51.568;5.048;2023-02-22T05:45:36;15.90;;;8.20;;
69534;SDS011;56754;51.568;5.048;2023-02-22T05:48:01;15.18;;;7.68;;
69534;SDS011;56754;51.568;5.048;2023-02-22T05:50:27;16.40;;;8.40;;
69534;SDS011;56754;51.568;5.048;2023-02-22T05:52:53;15.33;;;7.90;;
69534;SDS011;56754;51.568;5.048;2023-02-22T05:55:20;15.52;;;8.27;;
69534;SDS011;56754;51.568;5.048;2023-02-22T05:57:46;15.98;;;8.52;;
69534;SDS011;56754;51.568;5.048;2023-02-22T06:00:19;15.30;;;7.93;;
69534;SDS011;56754;51.568;5.048;2023-02-22T06:02:52;14.93;;;7.80;;
69534;SDS011;56754;51.568;5.048;2023-02-22T06:05:18;14.18;;;7.60;;
69534;SDS011;56754;51.568;5.048;2023-02-22T06:07:43;14.30;;;8.03;;
69534;SDS011;56754;51.568;5.048;2023-02-22T06:10:08;15.40;;;8.30;;
69534;SDS011;56754;51.568;5.048;2023-02-22T06:12:34;14.60;;;8.20;;
69534;SDS011;56754;51.568;5.048;2023-02-22T06:14:59;14.93;;;7.80;;
69534;SDS011;56754;51.568;5.048;2023-02-22T06:17:24;16.73;;;8.73;;
69534;SDS011;56754;51.568;5.048;2023-02-22T06:19:50;16.37;;;9.07;;
69534;SDS011;56754;51.568;5.048;2023-02-22T06:22:16;15.10;;;7.83;;
69534;SDS011;56754;51.568;5.048;2023-02-22T06:24:43;15.32;;;8.25;;
69534;SDS011;56754;51.568;5.048;2023-02-22T06:27:08;15.53;;;7.87;;
69534;SDS011;56754;51.568;5.048;2023-02-22T06:29:33;14.93;;;8.03;;
69534;SDS011;56754;51.568;5.048;2023-02-22T06:31:58;15.93;;;8.50;;
69534;SDS011;56754;51.568;5.048;2023-02-22T06:34:24;15.80;;;8.10;;
69534;SDS011;56754;51.568;5.048;2023-02-22T06:36:49;15.07;;;8.00;;
69534;SDS011;56754;51.568;5.048;2023-02-22T06:39:15;14.50;;;8.15;;
69534;SDS011;56754;51.568;5.048;2023-02-22T06:41:44;15.07;;;8.27;;
69534;SDS011;56754;51.568;5.048;2023-02-22T06:44:11;15.30;;;7.90;;
69534;SDS011;56754;51.568;5.048;2023-02-22T06:46:37;16.08;;;8.65;;
69534;SDS011;56754;51.568;5.048;2023-02-22T06:49:03;14.77;;;7.95;;
69534;SDS011;56754;51.568;5.048;2023-02-22T06:51:29;16.37;;;8.37;;
69534;SDS011;56754;51.568;5.048;2023-02-22T06:53:59;16.42;;;8.43;;
69534;SDS011;56754;51.568;5.048;2023-02-22T06:56:25;15.85;;;8.63;;
69534;SDS011;56754;51.568;5.048;2023-02-22T06:58:50;16.47;;;8.03;;
69534;SDS011;56754;51.568;5.048;2023-02-22T07:01:15;15.20;;;8.07;;
69534;SDS011;56754;51.568;5.048;2023-02-22T07:03:41;15.23;;;7.60;;
69534;SDS011;56754;51.568;5.048;2023-02-22T07:06:06;15.60;;;7.87;;
69534;SDS011;56754;51.568;5.048;2023-02-22T07:08:32;14.48;;;8.00;;
69534;SDS011;56754;51.568;5.048;2023-02-22T07:10:58;15.60;;;8.27;;
69534;SDS011;56754;51.568;5.048;2023-02-22T07:13:23;16.27;;;8.38;;
69534;SDS011;56754;51.568;5.048;2023-02-22T07:15:48;14.80;;;7.57;;
69534;SDS011;56754;51.568;5.048;2023-02-22T07:18:14;14.20;;;7.83;;
69534;SDS011;56754;51.568;5.048;2023-02-22T07:20:39;15.17;;;7.73;;
69534;SDS011;56754;51.568;5.048;2023-02-22T07:23:04;15.15;;;7.70;;
69534;SDS011;56754;51.568;5.048;2023-02-22T07:25:30;15.23;;;7.97;;
69534;SDS011;56754;51.568;5.048;2023-02-22T07:27:55;15.00;;;7.97;;
69534;SDS011;56754;51.568;5.048;2023-02-22T07:30:25;14.97;;;7.63;;
69534;SDS011;56754;51.568;5.048;2023-02-22T07:32:53;15.45;;;8.20;;
69534;SDS011;56754;51.568;5.048;2023-02-22T07:35:23;16.42;;;8.45;;
69534;SDS011;56754;51.568;5.048;2023-02-22T07:37:50;16.00;;;8.35;;
69534;SDS011;56754;51.568;5.048;2023-02-22T07:40:16;16.40;;;8.57;;
69534;SDS011;56754;51.568;5.048;2023-02-22T07:42:52;14.77;;;7.78;;
69534;SDS011;56754;51.568;5.048;2023-02-22T07:45:18;13.57;;;7.37;;
69534;SDS011;56754;51.568;5.048;2023-02-22T07:47:46;14.15;;;7.22;;
69534;SDS011;56754;51.568;5.048;2023-02-22T07:50:16;14.55;;;7.78;;
69534;SDS011;56754;51.568;5.048;2023-02-22T07:52:44;14.98;;;8.13;;
69534;SDS011;56754;51.568;5.048;2023-02-22T07:55:16;12.95;;;7.07;;
69534;SDS011;56754;51.568;5.048;2023-02-22T07:57:47;13.80;;;7.43;;
69534;SDS011;56754;51.568;5.048;2023-02-22T08:00:14;14.05;;;7.20;;
69534;SDS011;56754;51.568;5.048;2023-02-22T08:02:41;15.32;;;7.88;;
69534;SDS011;56754;51.568;5.048;2023-02-22T08:05:07;14.85;;;8.00;;
69534;SDS011;56754;51.568;5.048;2023-02-22T08:07:32;13.32;;;7.18;;
69534;SDS011;56754;51.568;5.048;2023-02-22T08:09:58;13.80;;;7.47;;
69534;SDS011;56754;51.568;5.048;2023-02-22T08:12:23;14.00;;;7.30;;
69534;SDS011;56754;51.568;5.048;2023-02-22T08:14:48;14.27;;;7.63;;
69534;SDS011;56754;51.568;5.048;2023-02-22T08:17:13;13.97;;;7.47;;
69534;SDS011;56754;51.568;5.048;2023-02-22T08:19:39;13.57;;;7.50;;
69534;SDS011;56754;51.568;5.048;2023-02-22T08:22:04;14.23;;;7.55;;
69534;SDS011;56754;51.568;5.048;2023-02-22T08:24:30;14.57;;;7.37;;
69534;SDS011;56754;51.568;5.048;2023-02-22T08:26:55;13.17;;;7.27;;
69534;SDS011;56754;51.568;5.048;2023-02-22T08:29:20;13.27;;;7.50;;
69534;SDS011;56754;51.568;5.048;2023-02-22T08:31:49;14.50;;;7.83;;
69534;SDS011;56754;51.568;5.048;2023-02-22T08:34:15;14.60;;;7.82;;
69534;SDS011;56754;51.568;5.048;2023-02-22T08:36:41;14.30;;;7.77;;
69534;SDS011;56754;51.568;5.048;2023-02-22T08:39:06;14.07;;;7.50;;
69534;SDS011;56754;51.568;5.048;2023-02-22T08:41:32;14.03;;;7.80;;
69534;SDS011;56754;51.568;5.048;2023-02-22T08:43:57;14.60;;;7.67;;
69534;SDS011;56754;51.568;5.048;2023-02-22T08:46:22;13.73;;;7.33;;
69534;SDS011;56754;51.568;5.048;2023-02-22T08:48:48;14.33;;;7.57;;
69534;SDS011;56754;51.568;5.048;2023-02-22T08:51:17;15.18;;;7.70;;
69534;SDS011;56754;51.568;5.048;2023-02-22T08:53:43;14.77;;;8.00;;
69534;SDS011;56754;51.568;5.048;2023-02-22T08:56:08;12.60;;;7.27;;
69534;SDS011;56754;51.568;5.048;2023-02-22T08:58:34;15.00;;;7.60;;
69534;SDS011;56754;51.568;5.048;2023-02-22T09:00:59;13.63;;;7.30;;
69534;SDS011;56754;51.568;5.048;2023-02-22T09:03:24;12.95;;;6.95;;
69534;SDS011;56754;51.568;5.048;2023-02-22T09:05:49;12.90;;;6.67;;
69534;SDS011;56754;51.568;5.048;2023-02-22T09:08:16;15.85;;;8.30;;
69534;SDS011;56754;51.568;5.048;2023-02-22T09:10:43;16.10;;;8.67;;
69534;SDS011;56754;51.568;5.048;2023-02-22T09:13:08;16.13;;;8.10;;
69534;SDS011;56754;51.568;5.048;2023-02-22T09:15:33;17.25;;;8.60;;
69534;SDS011;56754;51.568;5.048;2023-02-22T09:17:59;15.30;;;7.97;;
69534;SDS011;56754;51.568;5.048;2023-02-22T09:20:24;15.73;;;8.27;;
69534;SDS011;56754;51.568;5.048;2023-02-22T09:22:50;16.17;;;8.43;;
69534;SDS011;56754;51.568;5.048;2023-02-22T09:25:16;15.67;;;8.53;;
69534;SDS011;56754;51.568;5.048;2023-02-22T09:27:42;16.92;;;9.00;;
69534;SDS011;56754;51.568;5.048;2023-02-22T09:30:10;15.45;;;7.47;;
69534;SDS011;56754;51.568;5.048;2023-02-22T09:32:40;16.10;;;8.55;;
69534;SDS011;56754;51.568;5.048;2023-02-22T09:35:06;17.80;;;9.00;;
69534;SDS011;56754;51.568;5.048;2023-02-22T09:37:31;16.60;;;8.37;;
69534;SDS011;56754;51.568;5.048;2023-02-22T09:39:57;16.90;;;8.37;;
69534;SDS011;56754;51.568;5.048;2023-02-22T09:42:36;16.30;;;8.37;;
69534;SDS011;56754;51.568;5.048;2023-02-22T09:45:09;18.45;;;8.52;;
69534;SDS011;56754;51.568;5.048;2023-02-22T09:47:51;18.50;;;8.90;;
69534;SDS011;56754;51.568;5.048;2023-02-22T09:50:21;17.08;;;8.45;;
69534;SDS011;56754;51.568;5.048;2023-02-22T09:52:56;18.00;;;9.50;;
69534;SDS011;56754;51.568;5.048;2023-02-22T09:55:32;17.67;;;9.07;;
69534;SDS011;56754;51.568;5.048;2023-02-22T09:58:02;17.15;;;8.88;;
69534;SDS011;56754;51.568;5.048;2023-02-22T10:00:35;18.13;;;8.32;;
69534;SDS011;56754;51.568;5.048;2023-02-22T10:05:43;16.35;;;8.75;;
69534;SDS011;56754;51.568;5.048;2023-02-22T10:08:14;16.77;;;8.57;;
69534;SDS011;56754;51.568;5.048;2023-02-22T10:10:42;17.70;;;8.57;;
69534;SDS011;56754;51.568;5.048;2023-02-22T10:18:37;18.38;;;8.18;;
69534;SDS011;56754;51.568;5.048;2023-02-22T10:21:34;18.00;;;8.17;;
69534;SDS011;56754;51.568;5.048;2023-02-22T10:26:56;16.13;;;8.27;;
69534;SDS011;56754;51.568;5.048;2023-02-22T10:29:39;18.17;;;8.45;;
69534;SDS011;56754;51.568;5.048;2023-02-22T10:32:10;18.23;;;8.20;;
69534;SDS011;56754;51.568;5.048;2023-02-22T10:34:45;15.57;;;7.70;;
69534;SDS011;56754;51.568;5.048;2023-02-22T10:37:31;15.80;;;8.13;;
69534;SDS011;56754;51.568;5.048;2023-02-22T10:40:09;14.75;;;8.00;;
69534;SDS011;56754;51.568;5.048;2023-02-22T10:42:40;15.45;;;7.55;;
69534;SDS011;56754;51.568;5.048;2023-02-22T10:45:13;14.77;;;7.67;;
69534;SDS011;56754;51.568;5.048;2023-02-22T10:47:44;13.60;;;6.72;;
69534;SDS011;56754;51.568;5.048;2023-02-22T10:50:11;13.63;;;7.10;;
69534;SDS011;56754;51.568;5.048;2023-02-22T10:52:37;13.67;;;7.30;;
69534;SDS011;56754;51.568;5.048;2023-02-22T10:55:02;12.27;;;6.47;;
69534;SDS011;56754;51.568;5.048;2023-02-22T10:57:34;12.43;;;6.60;;
69534;SDS011;56754;51.568;5.048;2023-02-22T11:02:53;11.27;;;5.88;;
69534;SDS011;56754;51.568;5.048;2023-02-22T11:05:27;13.13;;;6.30;;
69534;SDS011;56754;51.568;5.048;2023-02-22T11:08:13;12.55;;;6.63;;
69534;SDS011;56754;51.568;5.048;2023-02-22T11:10:40;12.43;;;6.30;;
69534;SDS011;56754;51.568;5.048;2023-02-22T11:16:47;11.45;;;6.25;;
69534;SDS011;56754;51.568;5.048;2023-02-22T11:19:01;13.63;;;5.97;;
69534;SDS011;56754;51.568;5.048;2023-02-22T11:21:34;12.13;;;5.55;;
69534;SDS011;56754;51.568;5.048;2023-02-22T11:24:18;12.67;;;5.70;;
69534;SDS011;56754;51.568;5.048;2023-02-22T11:26:46;12.65;;;6.03;;
69534;SDS011;56754;51.568;5.048;2023-02-22T11:32:02;11.35;;;5.97;;
69534;SDS011;56754;51.568;5.048;2023-02-22T11:34:37;11.40;;;5.80;;
69534;SDS011;56754;51.568;5.048;2023-02-22T11:37:15;11.97;;;5.90;;
69534;SDS011;56754;51.568;5.048;2023-02-22T11:39:43;11.05;;;5.80;;
69534;SDS011;56754;51.568;5.048;2023-02-22T11:42:16;10.40;;;5.65;;
69534;SDS011;56754;51.568;5.048;2023-02-22T11:44:45;10.33;;;5.73;;
69534;SDS011;56754;51.568;5.048;2023-02-22T11:47:10;10.67;;;5.20;;
69534;SDS011;56754;51.568;5.048;2023-02-22T11:49:37;12.60;;;5.88;;
69534;SDS011;56754;51.568;5.048;2023-02-22T11:54:37;13.45;;;5.57;;
69534;SDS011;56754;51.568;5.048;2023-02-22T12:14:20;11.27;;;6.07;;
69534;SDS011;56754;51.568;5.048;2023-02-22T12:22:12;12.75;;;5.47;;
69534;SDS011;56754;51.568;5.048;2023-02-22T12:24:48;11.87;;;5.30;;
69534;SDS011;56754;51.568;5.048;2023-02-22T12:27:41;11.18;;;5.47;;
69534;SDS011;56754;51.568;5.048;2023-02-22T12:30:26;10.85;;;5.50;;
69534;SDS011;56754;51.568;5.048;2023-02-22T12:32:56;8.77;;;4.78;;
69534;SDS011;56754;51.568;5.048;2023-02-22T12:35:25;10.70;;;5.70;;
69534;SDS011;56754;51.568;5.048;2023-02-22T12:45:37;10.40;;;5.50;;
69534;SDS011;56754;51.568;5.048;2023-02-22T12:50:39;9.52;;;5.40;;
69534;SDS011;56754;51.568;5.048;2023-02-22T12:55:50;10.02;;;5.13;;
69534;SDS011;56754;51.568;5.048;2023-02-22T12:58:20;11.05;;;5.70;;
69534;SDS011;56754;51.568;5.048;2023-02-22T13:00:55;10.88;;;6.40;;
69534;SDS011;56754;51.568;5.048;2023-02-22T13:03:42;12.23;;;6.25;;
69534;SDS011;56754;51.568;5.048;2023-02-22T13:06:12;9.33;;;5.20;;
69534;SDS011;56754;51.568;5.048;2023-02-22T13:08:58;9.63;;;5.55;;
69534;SDS011;56754;51.568;5.048;2023-02-22T13:11:35;9.90;;;5.60;;
69534;SDS011;56754;51.568;5.048;2023-02-22T13:22:56;13.65;;;6.18;;
69534;SDS011;56754;51.568;5.048;2023-02-22T13:28:01;13.18;;;6.60;;
69534;SDS011;56754;51.568;5.048;2023-02-22T13:30:36;11.30;;;6.25;;
69534;SDS011;56754;51.568;5.048;2023-02-22T13:38:58;12.70;;;6.80;;
69534;SDS011;56754;51.568;5.048;2023-02-22T13:47:34;13.93;;;7.37;;
69534;SDS011;56754;51.568;5.048;2023-02-22T13:52:50;12.48;;;7.35;;
69534;SDS011;56754;51.568;5.048;2023-02-22T13:55:18;13.68;;;7.60;;
69534;SDS011;56754;51.568;5.048;2023-02-22T13:57:48;12.85;;;7.68;;
69534;SDS011;56754;51.568;5.048;2023-02-22T14:08:04;12.57;;;6.73;;
69534;SDS011;56754;51.568;5.048;2023-02-22T14:10:46;13.40;;;7.55;;
69534;SDS011;56754;51.568;5.048;2023-02-22T14:13:23;14.10;;;7.70;;
69534;SDS011;56754;51.568;5.048;2023-02-22T14:18:27;13.80;;;8.43;;
69534;SDS011;56754;51.568;5.048;2023-02-22T14:23:41;18.45;;;8.43;;
69534;SDS011;56754;51.568;5.048;2023-02-22T14:28:57;14.68;;;8.48;;
69534;SDS011;56754;51.568;5.048;2023-02-22T14:34:13;16.77;;;9.40;;
69534;SDS011;56754;51.568;5.048;2023-02-22T14:36:54;14.13;;;8.85;;
69534;SDS011;56754;51.568;5.048;2023-02-22T14:39:27;13.68;;;9.02;;
69534;SDS011;56754;51.568;5.048;2023-02-22T14:41:56;17.25;;;9.32;;
69534;SDS011;56754;51.568;5.048;2023-02-22T14:44:25;15.05;;;9.00;;
69534;SDS011;56754;51.568;5.048;2023-02-22T14:46:55;16.93;;;10.40;;
69534;SDS011;56754;51.568;5.048;2023-02-22T14:49:25;16.58;;;9.88;;
69534;SDS011;56754;51.568;5.048;2023-02-22T14:51:56;16.45;;;9.70;;
69534;SDS011;56754;51.568;5.048;2023-02-22T14:54:26;16.58;;;9.75;;
69534;SDS011;56754;51.568;5.048;2023-02-22T14:57:04;15.70;;;9.70;;
69534;SDS011;56754;51.568;5.048;2023-02-22T15:02:35;18.73;;;10.65;;
69534;SDS011;56754;51.568;5.048;2023-02-22T15:05:02;18.30;;;10.52;;
69534;SDS011;56754;51.568;5.048;2023-02-22T15:07:29;16.10;;;9.80;;
69534;SDS011;56754;51.568;5.048;2023-02-22T15:13:03;17.65;;;11.23;;
69534;SDS011;56754;51.568;5.048;2023-02-22T15:15:30;17.80;;;11.43;;
69534;SDS011;56754;51.568;5.048;2023-02-22T15:17:55;15.73;;;10.33;;
69534;SDS011;56754;51.568;5.048;2023-02-22T15:20:22;17.90;;;11.38;;
69534;SDS011;56754;51.568;5.048;2023-02-22T15:22:49;17.23;;;11.37;;
69534;SDS011;56754;51.568;5.048;2023-02-22T15:25:17;16.88;;;10.80;;
69534;SDS011;56754;51.568;5.048;2023-02-22T15:27:49;21.38;;;10.65;;
69534;SDS011;56754;51.568;5.048;2023-02-22T15:32:42;16.75;;;10.73;;
69534;SDS011;56754;51.568;5.048;2023-02-22T15:35:12;16.80;;;10.07;;
69534;SDS011;56754;51.568;5.048;2023-02-22T15:37:37;21.38;;;11.00;;
69534;SDS011;56754;51.568;5.048;2023-02-22T15:40:07;17.83;;;10.63;;
69534;SDS011;56754;51.568;5.048;2023-02-22T15:42:41;18.92;;;12.35;;
69534;SDS011;56754;51.568;5.048;2023-02-22T15:45:17;17.92;;;10.60;;
69534;SDS011;56754;51.568;5.048;2023-02-22T15:47:50;16.95;;;10.85;;
69534;SDS011;56754;51.568;5.048;2023-02-22T15:55:41;18.27;;;10.70;;
69534;SDS011;56754;51.568;5.048;2023-02-22T16:00:40;19.50;;;11.57;;
69534;SDS011;56754;51.568;5.048;2023-02-22T16:03:09;18.13;;;11.37;;
69534;SDS011;56754;51.568;5.048;2023-02-22T16:05:43;18.58;;;11.20;;
69534;SDS011;56754;51.568;5.048;2023-02-22T16:08:18;20.50;;;12.50;;
69534;SDS011;56754;51.568;5.048;2023-02-22T16:11:00;20.45;;;12.38;;
69534;SDS011;56754;51.568;5.048;2023-02-22T16:13:29;19.90;;;11.90;;
69534;SDS011;56754;51.568;5.048;2023-02-22T16:21:09;18.80;;;10.98;;
69534;SDS011;56754;51.568;5.048;2023-02-22T16:23:43;18.77;;;11.55;;
69534;SDS011;56754;51.568;5.048;2023-02-22T16:31:23;19.42;;;12.00;;
69534;SDS011;56754;51.568;5.048;2023-02-22T16:33:51;16.90;;;11.50;;
69534;SDS011;56754;51.568;5.048;2023-02-22T16:36:17;17.52;;;10.95;;
69534;SDS011;56754;51.568;5.048;2023-02-22T16:38:44;18.80;;;10.70;;
69534;SDS011;56754;51.568;5.048;2023-02-22T16:41:10;17.80;;;11.60;;
69534;SDS011;56754;51.568;5.048;2023-02-22T16:43:35;18.47;;;11.30;;
69534;SDS011;56754;51.568;5.048;2023-02-22T16:46:01;26.35;;;14.95;;
69534;SDS011;56754;51.568;5.048;2023-02-22T16:48:28;25.88;;;15.85;;
69534;SDS011;56754;51.568;5.048;2023-02-22T16:50:59;24.00;;;15.07;;
69534;SDS011;56754;51.568;5.048;2023-02-22T16:53:30;29.17;;;17.55;;
69534;SDS011;56754;51.568;5.048;2023-02-22T16:55:58;25.38;;;16.00;;
69534;SDS011;56754;51.568;5.048;2023-02-22T16:58:26;29.77;;;17.95;;
69534;SDS011;56754;51.568;5.048;2023-02-22T17:00:56;32.60;;;19.60;;
69534;SDS011;56754;51.568;5.048;2023-02-22T17:03:22;32.87;;;19.33;;
69534;SDS011;56754;51.568;5.048;2023-02-22T17:05:49;32.67;;;20.03;;
69534;SDS011;56754;51.568;5.048;2023-02-22T17:08:14;33.78;;;20.40;;
69534;SDS011;56754;51.568;5.048;2023-02-22T17:10:40;36.93;;;23.20;;
69534;SDS011;56754;51.568;5.048;2023-02-22T17:13:05;33.67;;;20.35;;
69534;SDS011;56754;51.568;5.048;2023-02-22T17:15:32;34.13;;;20.87;;